createdAt,value
2022-11-05T00:05:14.018Z,11.53
2022-11-05T00:10:24.530Z,16.23
2022-11-05T00:15:44.936Z,14.50
2022-11-05T00:20:46.578Z,12.93
2022-11-05T00:26:14.322Z,12.90
2022-11-05T00:31:16.055Z,12.83
2022-11-05T00:36:17.698Z,14.23
2022-11-05T00:41:19.346Z,13.87
2022-11-05T00:46:21.147Z,14.77
2022-11-05T00:51:22.927Z,13.37
2022-11-05T00:56:24.612Z,11.43
2022-11-05T01:01:26.394Z,16.10
2022-11-05T01:06:28.133Z,12.17
2022-11-05T01:11:33.265Z,14.00
2022-11-05T01:16:35.747Z,18.23
2022-11-05T01:21:37.424Z,14.13
2022-11-05T01:26:39.070Z,15.87
2022-11-05T01:31:40.790Z,12.80
2022-11-05T01:36:42.424Z,11.70
2022-11-05T01:41:44.061Z,12.73
2022-11-05T01:46:46.599Z,10.77
2022-11-05T01:51:48.880Z,14.73
2022-11-05T01:56:54.455Z,9.57
2022-11-05T02:01:56.502Z,12.53
2022-11-05T02:06:58.896Z,11.20
2022-11-05T02:12:00.712Z,8.93
2022-11-05T02:17:11.419Z,9.90
2022-11-05T02:22:31.662Z,8.33
2022-11-05T02:27:53.022Z,9.90
2022-11-05T02:33:08.877Z,8.13
2022-11-05T02:38:32.866Z,9.17
2022-11-05T02:43:59.536Z,9.63
2022-11-05T02:49:30.794Z,8.70
2022-11-05T02:55:01.732Z,14.03
2022-11-05T03:00:08.503Z,13.60
2022-11-05T03:05:10.169Z,15.77
2022-11-05T03:10:33.384Z,12.67
2022-11-05T03:15:48.845Z,15.17
2022-11-05T03:20:51.944Z,19.17
2022-11-05T03:26:03.869Z,15.33
2022-11-05T03:31:06.784Z,16.20
2022-11-05T03:36:16.501Z,19.00
2022-11-05T03:41:20.401Z,19.40
2022-11-05T03:46:37.065Z,19.67
2022-11-05T03:51:51.283Z,19.47
2022-11-05T03:57:23.782Z,18.30
2022-11-05T04:02:26.206Z,20.10
2022-11-05T04:07:46.521Z,17.87
2022-11-05T04:13:06.733Z,17.10
2022-11-05T04:18:08.342Z,18.23
2022-11-05T04:23:28.563Z,16.70
2022-11-05T04:28:50.182Z,18.37
2022-11-05T04:33:51.825Z,14.23
2022-11-05T04:38:53.468Z,17.40
2022-11-05T04:43:55.173Z,14.23
2022-11-05T04:48:56.854Z,15.77
2022-11-05T04:53:58.529Z,14.77
2022-11-05T04:59:00.226Z,16.97
2022-11-05T05:04:01.901Z,15.10
2022-11-05T05:09:03.738Z,16.13
2022-11-05T05:14:05.464Z,13.43
2022-11-05T05:19:07.127Z,14.53
2022-11-05T05:24:16.999Z,16.20
2022-11-05T05:29:18.750Z,19.87
2022-11-05T05:34:20.483Z,14.67
2022-11-05T05:39:22.153Z,16.23
2022-11-05T05:44:23.890Z,14.40
2022-11-05T05:49:25.536Z,12.30
2022-11-05T05:54:32.102Z,18.10
2022-11-05T05:59:34.450Z,14.67
2022-11-05T06:04:36.141Z,16.03
2022-11-05T06:09:37.814Z,15.70
2022-11-05T06:14:39.471Z,15.83
2022-11-05T06:19:41.105Z,16.10
2022-11-05T06:24:42.959Z,13.57
2022-11-05T06:29:44.625Z,15.23
2022-11-05T06:34:46.314Z,18.23
2022-11-05T06:39:48.426Z,15.07
2022-11-05T06:44:50.555Z,15.87
2022-11-05T06:49:52.324Z,16.93
2022-11-05T06:54:54.092Z,12.30
2022-11-05T07:00:00.558Z,16.50
2022-11-05T07:05:04.125Z,13.27
2022-11-05T07:10:07.717Z,16.87
2022-11-05T07:15:11.303Z,16.50
2022-11-05T07:20:13.078Z,14.47
2022-11-05T07:25:14.786Z,16.53
2022-11-05T07:30:16.580Z,19.17
2022-11-05T07:35:18.317Z,18.73
2022-11-05T07:40:21.166Z,13.47
2022-11-05T07:45:24.424Z,20.37
2022-11-05T07:50:31.733Z,48.53
2022-11-05T07:55:33.849Z,29.17
2022-11-05T08:00:35.587Z,32.33
2022-11-05T08:05:39.748Z,56.03
2022-11-05T08:10:43.835Z,33.40
2022-11-05T08:15:45.460Z,29.27
2022-11-05T08:20:50.671Z,28.80
2022-11-05T08:25:52.722Z,29.87
2022-11-05T08:30:58.527Z,27.63
2022-11-05T08:36:06.687Z,27.00
2022-11-05T08:41:10.996Z,23.43
2022-11-05T08:46:12.919Z,21.37
2022-11-05T08:51:17.530Z,19.50
2022-11-05T08:56:27.215Z,21.60
2022-11-05T09:01:29.127Z,18.67
2022-11-05T09:06:31.260Z,17.07
2022-11-05T09:11:57.471Z,17.93
2022-11-05T09:17:00.045Z,18.90
2022-11-05T09:22:04.880Z,22.07
2022-11-05T09:27:13.299Z,15.10
2022-11-05T09:32:19.309Z,16.70
2022-11-05T09:37:22.064Z,15.17
2022-11-05T09:42:29.465Z,16.53
2022-11-05T09:47:47.556Z,11.97
2022-11-05T09:52:55.692Z,13.53
2022-11-05T09:57:59.992Z,14.60
2022-11-05T10:03:06.955Z,16.07
2022-11-05T10:08:27.924Z,14.20
2022-11-05T10:13:35.643Z,13.97
2022-11-05T10:18:40.780Z,13.97
2022-11-05T10:23:43.370Z,14.63
2022-11-05T10:28:53.252Z,13.20
2022-11-05T10:33:59.704Z,11.47
2022-11-05T10:39:15.058Z,9.67
2022-11-05T10:44:27.032Z,12.07
2022-11-05T10:49:45.131Z,12.50
2022-11-05T10:54:50.626Z,12.93
2022-11-05T11:00:26.353Z,16.23
2022-11-05T11:05:31.066Z,12.50
2022-11-05T11:10:57.642Z,11.23
2022-11-05T11:16:19.917Z,9.97
2022-11-05T11:21:26.362Z,10.43
2022-11-05T11:26:58.816Z,16.17
2022-11-05T11:32:03.570Z,9.97
2022-11-05T11:37:16.694Z,10.47
2022-11-05T11:42:34.737Z,10.17
2022-11-05T11:47:43.544Z,8.17
2022-11-05T11:52:58.098Z,9.57
2022-11-05T12:04:05.538Z,12.17
2022-11-05T12:09:57.513Z,10.40
2022-11-05T12:15:28.682Z,7.13
2022-11-05T12:21:00.602Z,8.30
2022-11-05T12:26:37.968Z,8.37
2022-11-05T12:31:51.796Z,7.83
2022-11-05T12:37:31.278Z,7.30
2022-11-05T12:43:01.152Z,8.37
2022-11-05T12:48:16.555Z,7.50
2022-11-05T12:53:24.296Z,9.70
2022-11-05T12:58:31.277Z,9.63
2022-11-05T13:03:58.799Z,10.20
2022-11-05T13:09:29.877Z,7.87
2022-11-05T13:14:42.515Z,5.63
2022-11-05T13:20:11.817Z,5.97
2022-11-05T13:25:25.398Z,7.00
2022-11-05T13:30:43.538Z,9.10
2022-11-05T13:36:14.591Z,6.27
2022-11-05T13:41:44.412Z,7.57
2022-11-05T13:46:56.440Z,10.10
2022-11-05T13:52:20.340Z,7.47
2022-11-05T13:58:11.428Z,11.97
2022-11-05T14:03:19.096Z,7.87
2022-11-05T14:08:25.816Z,8.17
2022-11-05T14:13:53.600Z,7.70
2022-11-05T14:19:18.286Z,6.90
2022-11-05T14:24:23.141Z,10.27
2022-11-05T14:29:24.959Z,14.17
2022-11-05T14:34:50.193Z,10.00
2022-11-05T14:39:56.069Z,6.33
2022-11-05T14:45:22.399Z,6.03
2022-11-05T14:50:47.103Z,6.50
2022-11-05T14:56:13.238Z,5.93
2022-11-05T15:01:15.239Z,7.83
2022-11-05T15:06:36.482Z,7.23
2022-11-05T15:11:57.710Z,6.07
2022-11-05T15:17:30.808Z,6.77
2022-11-05T15:22:47.250Z,7.17
2022-11-05T15:27:58.299Z,6.40
2022-11-05T15:33:23.246Z,8.70
2022-11-05T15:38:25.411Z,8.60
2022-11-05T15:43:27.305Z,8.30
2022-11-05T15:48:31.603Z,7.30
2022-11-05T15:54:15.705Z,8.80
2022-11-05T15:59:29.854Z,7.07
2022-11-05T16:04:33.461Z,6.67
2022-11-05T16:09:38.172Z,8.00
2022-11-05T16:14:41.375Z,14.70
2022-11-05T16:19:43.302Z,11.87
2022-11-05T16:24:46.358Z,8.73
2022-11-05T16:29:55.590Z,8.20
2022-11-05T16:35:03.475Z,6.67
2022-11-05T16:40:20.566Z,7.53
2022-11-05T16:45:24.123Z,9.80
2022-11-05T16:50:30.468Z,12.63
2022-11-05T16:55:33.037Z,6.47
2022-11-05T17:00:34.927Z,6.90
2022-11-05T17:05:36.582Z,7.23
2022-11-05T17:10:40.043Z,10.50
2022-11-05T17:15:45.738Z,11.80
2022-11-05T17:20:50.755Z,8.63
2022-11-05T17:26:06.689Z,10.37
2022-11-05T17:31:11.314Z,24.00
2022-11-05T17:36:15.450Z,5.60
2022-11-05T17:41:19.360Z,8.40
2022-11-05T17:46:21.565Z,7.53
2022-11-05T17:51:23.309Z,11.53
2022-11-05T17:56:34.104Z,5.13
2022-11-05T18:01:43.787Z,8.83
2022-11-05T18:06:45.668Z,35.67
2022-11-05T18:11:49.711Z,7.07
2022-11-05T18:16:55.171Z,13.30
2022-11-05T18:21:57.443Z,12.77
2022-11-05T18:26:59.436Z,17.13
2022-11-05T18:32:04.479Z,7.17
2022-11-05T18:37:06.486Z,4.47
2022-11-05T18:42:08.721Z,4.87
2022-11-05T18:47:12.877Z,6.70
2022-11-05T18:52:16.946Z,3.90
2022-11-05T18:57:21.879Z,5.70
2022-11-05T19:02:23.929Z,5.30
2022-11-05T19:07:27.059Z,5.87
2022-11-05T19:12:31.728Z,6.53
2022-11-05T19:17:34.066Z,5.90
2022-11-05T19:22:38.705Z,5.70
2022-11-05T19:27:41.054Z,8.83
2022-11-05T19:32:45.211Z,5.50
2022-11-05T19:37:56.378Z,4.90
2022-11-05T19:42:58.162Z,8.67
2022-11-05T19:47:59.988Z,9.67
2022-11-05T19:53:01.712Z,6.40
2022-11-05T19:58:05.759Z,7.40
2022-11-05T20:03:10.129Z,5.53
2022-11-05T20:08:12.410Z,6.37
2022-11-05T20:13:19.810Z,13.70
2022-11-05T20:18:22.264Z,9.63
2022-11-05T20:23:24.246Z,5.93
2022-11-05T20:28:27.278Z,6.27
2022-11-05T20:33:29.040Z,5.67
2022-11-05T20:38:33.748Z,6.63
2022-11-05T20:43:36.701Z,5.87
2022-11-05T20:48:38.468Z,7.97
2022-11-05T20:53:43.833Z,9.17
2022-11-05T20:58:47.976Z,8.80
2022-11-05T21:03:50.119Z,11.27
2022-11-05T21:08:55.610Z,7.33
2022-11-05T21:13:57.579Z,5.50
2022-11-05T21:18:59.604Z,7.87
2022-11-05T21:24:03.746Z,4.93
2022-11-05T21:29:07.832Z,6.87
2022-11-05T21:34:09.734Z,5.77
2022-11-05T21:39:19.205Z,6.17
2022-11-05T21:44:21.137Z,5.83
2022-11-05T21:49:23.063Z,5.63
2022-11-05T21:54:52.532Z,6.93
2022-11-05T21:59:57.538Z,6.87
2022-11-05T22:05:00.129Z,6.30
2022-11-05T22:10:02.950Z,20.07
2022-11-05T22:15:05.921Z,5.40
2022-11-05T22:20:11.065Z,9.50
2022-11-05T22:25:16.026Z,7.97
2022-11-05T22:30:17.933Z,9.33
2022-11-05T22:35:20.074Z,8.33
2022-11-05T22:40:26.936Z,6.60
2022-11-05T22:45:28.789Z,6.77
2022-11-05T22:50:31.029Z,7.43
2022-11-05T22:55:35.698Z,8.47
2022-11-05T23:00:40.246Z,9.03
2022-11-05T23:05:42.093Z,6.80
2022-11-05T23:11:08.002Z,8.30
2022-11-05T23:16:30.977Z,7.80
2022-11-05T23:21:51.155Z,12.27
2022-11-05T23:26:53.645Z,6.50
2022-11-05T23:32:14.162Z,10.27
2022-11-05T23:37:34.640Z,6.77
2022-11-05T23:42:54.822Z,7.27
2022-11-05T23:48:15.585Z,7.43
2022-11-05T23:53:18.087Z,17.63
2022-11-05T23:58:20.171Z,9.07
